Time;durP1;ratioP1;P1;durP2;ratioP2;P2;SDS_P1;SDS_P2;PMS_P1;PMS_P2;Temp;Humidity;BMP_temperature;BMP_pressure;BME280_temperature;BME280_humidity;BME280_pressure;Samples;Min_cycle;Max_cycle;Signal;HPM_P1;HPM_P2
2023/08/02 00:02:14;;;;;;;7.00;3.55;;;;;;;15.55;100.00;100035.19;5029886;28;20033;-71
2023/08/02 00:04:41;;;;;;;9.57;2.90;;;;;;;15.55;100.00;100044.03;5046520;28;20396;-71
2023/08/02 00:07:07;;;;;;;10.48;3.88;;;;;;;15.51;100.00;100029.50;5031139;28;20515;-71
2023/08/02 00:09:33;;;;;;;9.32;3.70;;;;;;;15.47;100.00;100022.19;5031012;28;20029;-71
2023/08/02 00:12:00;;;;;;;10.02;3.53;;;;;;;15.48;100.00;100031.84;5030863;28;20061;-71
2023/08/02 00:14:26;;;;;;;12.48;3.78;;;;;;;15.46;100.00;100028.63;5030893;28;20146;-71
2023/08/02 00:16:51;;;;;;;6.57;2.92;;;;;;;15.42;100.00;100024.78;5030886;28;20973;-71
2023/08/02 00:19:17;;;;;;;10.40;3.05;;;;;;;15.38;100.00;100027.19;5030893;28;20068;-71
2023/08/02 00:21:43;;;;;;;9.07;3.47;;;;;;;15.37;100.00;100040.84;5030929;28;20477;-71
2023/08/02 00:24:09;;;;;;;6.85;2.22;;;;;;;15.31;100.00;100032.72;5030547;28;20104;-72
2023/08/02 00:26:34;;;;;;;9.23;2.97;;;;;;;15.33;100.00;100030.59;5030713;28;20046;-71
2023/08/02 00:29:00;;;;;;;7.68;2.30;;;;;;;15.27;100.00;100034.28;5030741;28;20041;-71
2023/08/02 00:31:25;;;;;;;9.27;2.88;;;;;;;15.24;100.00;100039.31;5030710;28;20029;-71
2023/08/02 00:33:51;;;;;;;9.77;3.33;;;;;;;15.21;100.00;100043.31;5030451;28;20523;-71
2023/08/02 00:36:16;;;;;;;10.35;3.38;;;;;;;15.13;100.00;100036.50;5030430;28;20156;-71
2023/08/02 00:38:41;;;;;;;8.55;2.72;;;;;;;15.10;100.00;100041.56;5030564;28;20033;-71
2023/08/02 00:41:08;;;;;;;5.93;2.60;;;;;;;15.05;100.00;100038.78;5030475;28;20037;-71
2023/08/02 00:43:45;;;;;;;8.45;3.17;;;;;;;15.03;100.00;100033.66;5030448;28;20037;-71
2023/08/02 00:46:13;;;;;;;5.65;2.70;;;;;;;15.00;100.00;100017.25;5030096;28;20112;-71
2023/08/02 00:48:39;;;;;;;7.60;2.83;;;;;;;14.94;100.00;100002.13;5030049;28;20381;-71
2023/08/02 00:51:05;;;;;;;6.50;2.95;;;;;;;14.90;100.00;100005.28;5030329;28;20037;-71
2023/08/02 00:53:30;;;;;;;6.70;3.17;;;;;;;14.90;100.00;100007.97;5030192;28;20036;-71
2023/08/02 00:55:57;;;;;;;8.13;2.70;;;;;;;14.91;100.00;100000.75;5030263;28;20038;-71
2023/08/02 00:58:22;;;;;;;7.43;2.80;;;;;;;14.84;100.00;99990.16;5029765;28;20167;-71
2023/08/02 01:00:48;;;;;;;10.00;3.90;;;;;;;14.88;100.00;99993.16;5030160;28;20123;-71
2023/08/02 01:03:14;;;;;;;6.65;2.67;;;;;;;14.90;100.00;99988.34;5030068;28;20388;-71
2023/08/02 01:05:46;;;;;;;5.78;2.60;;;;;;;14.92;100.00;99975.50;5030083;28;20027;-71
2023/08/02 01:08:19;;;;;;;8.88;2.55;;;;;;;14.96;100.00;99973.97;5030045;28;20117;-71
2023/08/02 01:11:06;;;;;;;6.03;2.80;;;;;;;15.00;100.00;99977.75;5029823;28;20083;-71
2023/08/02 01:13:35;;;;;;;7.75;3.05;;;;;;;15.03;100.00;99984.50;5029960;28;20131;-71
2023/08/02 01:16:03;;;;;;;10.13;2.65;;;;;;;14.98;100.00;99979.06;5029769;28;20112;-71
2023/08/02 01:18:28;;;;;;;6.18;2.42;;;;;;;15.06;100.00;99986.69;5028503;28;20037;-71
2023/08/02 01:20:54;;;;;;;9.13;2.47;;;;;;;15.05;100.00;99979.72;5029869;28;20044;-71
2023/08/02 01:23:19;;;;;;;6.90;2.47;;;;;;;15.06;100.00;99992.06;5044656;28;20094;-71
2023/08/02 01:25:46;;;;;;;7.75;2.95;;;;;;;15.05;100.00;99988.56;5029488;28;20147;-71
2023/08/02 01:28:20;;;;;;;7.45;2.38;;;;;;;15.07;100.00;99975.72;5029168;28;20029;-71
2023/08/02 01:30:47;;;;;;;6.95;3.13;;;;;;;15.04;100.00;99986.16;5029627;28;20021;-71
2023/08/02 01:33:13;;;;;;;4.82;2.42;;;;;;;15.08;100.00;99987.28;5029585;28;20063;-71
2023/08/02 01:35:39;;;;;;;3.53;2.17;;;;;;;15.10;100.00;99983.28;5029550;28;20171;-71
2023/08/02 01:38:05;;;;;;;5.05;2.53;;;;;;;15.10;100.00;99979.78;5029564;28;20491;-71
2023/08/02 01:40:30;;;;;;;10.48;3.90;;;;;;;15.10;100.00;99982.47;5029466;28;20037;-71
2023/08/02 01:42:56;;;;;;;4.93;2.08;;;;;;;15.12;100.00;99973.09;5029432;28;20029;-71
2023/08/02 01:45:22;;;;;;;5.35;2.70;;;;;;;15.08;100.00;99957.72;5029354;28;20084;-71
2023/08/02 01:47:48;;;;;;;7.70;2.15;;;;;;;15.16;100.00;99968.03;5029276;28;20033;-71
2023/08/02 01:50:14;;;;;;;8.05;3.15;;;;;;;15.20;100.00;99960.31;5029278;28;20032;-71
2023/08/02 01:52:39;;;;;;;13.75;3.97;;;;;;;15.19;100.00;99956.00;5029215;28;20033;-71
2023/08/02 01:55:05;;;;;;;5.82;2.90;;;;;;;15.22;100.00;99948.25;5029166;28;20124;-72
2023/08/02 01:57:30;;;;;;;9.68;3.80;;;;;;;15.24;100.00;99950.69;5029335;28;20597;-71
2023/08/02 01:59:56;;;;;;;4.07;2.20;;;;;;;15.23;100.00;99941.81;5029319;28;20072;-71
2023/08/02 02:02:21;;;;;;;8.20;2.47;;;;;;;15.26;100.00;99938.63;5028920;28;20029;-71
2023/08/02 02:04:46;;;;;;;8.23;2.22;;;;;;;15.28;100.00;99930.31;5044640;28;20497;-71
2023/08/02 02:07:12;;;;;;;5.32;3.08;;;;;;;15.28;100.00;99930.31;5029029;28;20051;-71
2023/08/02 02:09:37;;;;;;;4.28;2.42;;;;;;;15.28;100.00;99917.69;5029149;28;20029;-71
2023/08/02 02:12:03;;;;;;;7.97;3.00;;;;;;;15.28;100.00;99898.09;5029102;28;20485;-71
2023/08/02 02:14:28;;;;;;;4.90;2.28;;;;;;;15.26;100.00;99898.31;5029186;28;20487;-71
2023/08/02 02:16:54;;;;;;;8.95;2.20;;;;;;;15.27;100.00;99880.34;5029156;28;20401;-71
2023/08/02 02:19:19;;;;;;;8.23;3.53;;;;;;;15.25;100.00;99883.28;5029161;28;20057;-71
2023/08/02 02:21:44;;;;;;;7.45;2.72;;;;;;;15.18;100.00;99885.34;5029176;28;20120;-71
2023/08/02 02:24:10;;;;;;;6.75;2.55;;;;;;;15.24;100.00;99892.38;5044245;28;20084;-71
2023/08/02 02:26:36;;;;;;;8.63;2.30;;;;;;;15.22;100.00;99891.00;5029000;28;20029;-71
2023/08/02 02:29:01;;;;;;;4.72;2.45;;;;;;;15.22;100.00;99875.72;5029231;28;20596;-71
2023/08/02 02:31:27;;;;;;;5.47;2.35;;;;;;;15.20;100.00;99861.75;5027642;28;20029;-71
2023/08/02 02:33:52;;;;;;;6.45;2.25;;;;;;;15.20;100.00;99853.69;5029079;28;20025;-71
2023/08/02 02:36:17;;;;;;;5.93;2.88;;;;;;;15.21;100.00;99846.44;5028929;28;20049;-71
2023/08/02 02:38:43;;;;;;;8.43;2.30;;;;;;;15.20;100.00;99842.13;5029940;28;20071;-71
2023/08/02 02:41:08;;;;;;;7.13;2.35;;;;;;;15.21;100.00;99849.91;5048215;28;20507;-71
2023/08/02 02:43:33;;;;;;;7.05;2.90;;;;;;;15.21;100.00;99843.75;5032687;28;20500;-71
2023/08/02 02:45:59;;;;;;;10.05;3.08;;;;;;;15.26;100.00;99847.28;5032878;28;20692;-71
2023/08/02 02:48:24;;;;;;;10.15;2.67;;;;;;;15.27;100.00;99840.03;5032529;28;20397;-71
2023/08/02 02:50:49;;;;;;;10.52;3.17;;;;;;;15.27;100.00;99838.19;5032639;28;20049;-71
2023/08/02 02:53:16;;;;;;;8.70;2.95;;;;;;;15.30;100.00;99839.53;5032544;28;20068;-71
2023/08/02 02:55:41;;;;;;;9.25;2.78;;;;;;;15.29;100.00;99844.09;5032435;28;20030;-71
2023/08/02 02:58:07;;;;;;;7.80;2.80;;;;;;;15.33;100.00;99839.03;5047519;28;20088;-71
2023/08/02 03:00:32;;;;;;;10.88;2.90;;;;;;;15.33;100.00;99847.91;5032398;28;20036;-71
2023/08/02 03:02:58;;;;;;;5.93;2.55;;;;;;;15.34;100.00;99841.47;5032485;28;20408;-71
2023/08/02 03:05:23;;;;;;;9.65;2.50;;;;;;;15.34;100.00;99829.91;5032347;28;20040;-71
2023/08/02 03:07:48;;;;;;;6.78;2.75;;;;;;;15.34;100.00;99824.53;5032344;28;20111;-71
2023/08/02 03:10:14;;;;;;;6.22;2.75;;;;;;;15.36;100.00;99808.19;5032089;28;20064;-71
2023/08/02 03:12:39;;;;;;;10.05;3.67;;;;;;;15.37;100.00;99807.09;5031928;28;20060;-71
2023/08/02 03:15:05;;;;;;;6.03;3.05;;;;;;;15.36;100.00;99794.75;5032023;28;20033;-71
2023/08/02 03:17:31;;;;;;;9.23;4.20;;;;;;;15.37;100.00;99788.28;5031862;28;20025;-71
2023/08/02 03:19:56;;;;;;;6.18;2.22;;;;;;;15.35;100.00;99769.72;5031873;28;20102;-71
2023/08/02 03:22:21;;;;;;;6.22;2.45;;;;;;;15.36;100.00;99765.19;5031942;28;20140;-71
2023/08/02 03:24:47;;;;;;;6.28;2.55;;;;;;;15.37;100.00;99764.09;5031974;28;20033;-71
2023/08/02 03:27:12;;;;;;;9.30;2.53;;;;;;;15.36;100.00;99754.44;5031708;28;20033;-71
2023/08/02 03:29:38;;;;;;;4.05;2.42;;;;;;;15.36;100.00;99739.13;5031979;28;20040;-71
2023/08/02 03:32:03;;;;;;;11.98;2.95;;;;;;;15.36;100.00;99741.81;5031887;28;20064;-71
2023/08/02 03:34:29;;;;;;;5.45;3.05;;;;;;;15.36;100.00;99743.69;5031529;28;20428;-71
2023/08/02 03:36:54;;;;;;;13.30;2.80;;;;;;;15.34;100.00;99741.25;5031775;28;20037;-71
2023/08/02 03:39:19;;;;;;;7.47;2.55;;;;;;;15.31;100.00;99731.03;5031573;28;20610;-71
2023/08/02 03:41:45;;;;;;;9.25;3.03;;;;;;;15.31;100.00;99744.44;5046831;28;20056;-71
2023/08/02 03:44:11;;;;;;;3.95;2.42;;;;;;;15.27;100.00;99733.41;5031601;28;20041;-71
2023/08/02 03:46:36;;;;;;;7.63;2.80;;;;;;;15.27;100.00;99727.22;5031664;28;20017;-71
2023/08/02 03:49:01;;;;;;;8.88;2.65;;;;;;;15.27;100.00;99719.97;5031075;28;20056;-71
2023/08/02 03:51:27;;;;;;;4.65;2.65;;;;;;;15.27;100.00;99717.28;5031460;28;20029;-71
2023/08/02 03:53:52;;;;;;;8.07;2.72;;;;;;;15.30;100.00;99715.94;5031198;28;20025;-71
2023/08/02 03:56:18;;;;;;;4.53;2.60;;;;;;;15.30;100.00;99719.47;5031360;28;20496;-71
2023/08/02 03:58:43;;;;;;;7.75;2.85;;;;;;;15.30;100.00;99703.34;5031221;28;20029;-71
2023/08/02 04:01:09;;;;;;;7.80;2.97;;;;;;;15.24;100.00;99687.44;5030560;28;20057;-71
2023/08/02 04:03:34;;;;;;;4.25;2.35;;;;;;;15.30;100.00;99687.22;5030996;28;20029;-71
2023/08/02 04:05:59;;;;;;;7.93;2.13;;;;;;;15.31;100.00;99683.47;5030452;28;20029;-71
2023/08/02 04:08:25;;;;;;;5.05;2.10;;;;;;;15.32;100.00;99689.66;5030212;28;20073;-71
2023/08/02 04:10:51;;;;;;;11.07;3.58;;;;;;;15.30;100.00;99681.84;5030401;28;20469;-71
2023/08/02 04:13:16;;;;;;;4.70;2.60;;;;;;;15.31;100.00;99686.16;5030694;28;20057;-71
2023/08/02 04:15:42;;;;;;;7.13;3.03;;;;;;;15.32;100.00;99677.00;5030652;28;20487;-71
2023/08/02 04:18:07;;;;;;;8.15;3.00;;;;;;;15.33;100.00;99669.78;5030278;28;20040;-71
2023/08/02 04:20:36;;;;;;;11.38;3.13;;;;;;;15.32;100.00;99665.47;5030039;28;20044;-71
2023/08/02 04:23:02;;;;;;;5.35;2.40;;;;;;;15.31;100.00;99650.44;5030105;28;20455;-71
2023/08/02 04:25:27;;;;;;;6.00;2.70;;;;;;;15.30;100.00;99638.88;5029729;28;20049;-71
2023/08/02 04:27:53;;;;;;;7.65;2.92;;;;;;;15.28;100.00;99640.19;5029765;28;20167;-71
2023/08/02 04:30:18;;;;;;;11.65;3.53;;;;;;;15.29;100.00;99637.25;5029807;28;20123;-71
2023/08/02 04:32:43;;;;;;;6.70;3.88;;;;;;;15.26;100.00;99631.59;5029433;28;20076;-71
2023/08/02 04:35:09;;;;;;;9.30;3.55;;;;;;;15.23;100.00;99611.41;5029840;28;20064;-71
2023/08/02 04:37:35;;;;;;;7.00;3.30;;;;;;;15.27;100.00;99611.69;5029672;28;20117;-71
2023/08/02 04:40:01;;;;;;;6.03;3.00;;;;;;;15.25;100.00;99598.53;5028338;28;20465;-71
2023/08/02 04:42:26;;;;;;;10.45;3.00;;;;;;;15.26;100.00;99581.34;5045027;28;20025;-71
2023/08/02 04:44:51;;;;;;;6.90;3.88;;;;;;;15.27;100.00;99590.22;5045334;28;20428;-71
2023/08/02 04:47:17;;;;;;;11.75;4.38;;;;;;;15.27;100.00;99579.47;5030270;28;20039;-71
2023/08/02 04:49:42;;;;;;;10.52;3.83;;;;;;;15.26;100.00;99578.66;5030300;28;20124;-71
2023/08/02 04:52:07;;;;;;;9.55;3.08;;;;;;;15.25;100.00;99582.44;5030139;28;20381;-71
2023/08/02 04:54:34;;;;;;;5.68;3.40;;;;;;;15.26;100.00;99569.81;5030023;28;20420;-71
2023/08/02 04:56:59;;;;;;;7.35;3.70;;;;;;;15.26;100.00;99551.00;5030036;28;20116;-71
2023/08/02 04:59:24;;;;;;;9.68;3.78;;;;;;;15.27;100.00;99545.38;5029458;28;20125;-71
2023/08/02 05:01:50;;;;;;;9.63;4.05;;;;;;;15.28;100.00;99543.50;5028840;28;20037;-71
2023/08/02 05:04:15;;;;;;;7.57;3.35;;;;;;;15.28;100.00;99532.75;5029830;28;20490;-71
2023/08/02 05:06:42;;;;;;;7.80;3.05;;;;;;;15.30;100.00;99519.84;5029349;28;20548;-71
2023/08/02 05:09:08;;;;;;;10.25;4.30;;;;;;;15.31;100.00;99524.97;5028982;28;20033;-71
2023/08/02 05:11:33;;;;;;;7.50;3.78;;;;;;;15.33;100.00;99525.53;5029004;28;20059;-71
2023/08/02 05:13:58;;;;;;;8.35;3.17;;;;;;;15.30;100.00;99515.31;5028261;28;20139;-71
2023/08/02 05:16:25;;;;;;;8.40;3.95;;;;;;;15.34;100.00;99518.28;5028832;28;20037;-71
2023/08/02 05:18:51;;;;;;;6.07;3.20;;;;;;;15.36;100.00;99524.19;5029349;28;20029;-71
2023/08/02 05:21:17;;;;;;;5.50;2.78;;;;;;;15.37;100.00;99516.94;5029646;28;20037;-71
2023/08/02 05:23:43;;;;;;;10.20;3.28;;;;;;;15.39;100.00;99517.50;5029011;28;20044;-71
2023/08/02 05:26:09;;;;;;;8.13;3.53;;;;;;;15.38;100.00;99507.78;5028950;28;20067;-71
2023/08/02 05:28:35;;;;;;;6.18;3.42;;;;;;;15.38;100.00;99497.06;5029492;28;20043;-71
2023/08/02 05:31:01;;;;;;;5.85;3.20;;;;;;;15.33;100.00;99492.50;5029415;28;20032;-71
2023/08/02 05:33:26;;;;;;;11.15;4.93;;;;;;;15.33;100.00;99485.22;5029215;28;20033;-71
2023/08/02 05:35:52;;;;;;;9.55;3.80;;;;;;;15.37;100.00;99493.56;5028798;28;20029;-71
2023/08/02 05:38:17;;;;;;;10.10;3.85;;;;;;;15.36;100.00;99483.91;5044656;28;20465;-71
2023/08/02 05:40:43;;;;;;;6.40;3.53;;;;;;;15.33;100.00;99477.16;5029569;28;20033;-71
2023/08/02 05:43:08;;;;;;;31.85;4.25;;;;;;;15.34;100.00;99475.28;5029341;28;20095;-71
2023/08/02 05:45:34;;;;;;;7.00;4.35;;;;;;;15.30;100.00;99455.38;5028242;28;20067;-71
2023/08/02 05:47:59;;;;;;;8.52;3.67;;;;;;;15.34;100.00;99448.41;5029512;28;21043;-71
2023/08/02 05:50:25;;;;;;;7.50;3.50;;;;;;;15.24;100.00;99422.31;5029184;28;20041;-71
2023/08/02 05:52:50;;;;;;;7.05;3.15;;;;;;;15.30;100.00;99434.72;5029292;28;20067;-71
2023/08/02 05:55:16;;;;;;;7.03;3.72;;;;;;;15.29;100.00;99427.72;5029073;28;20064;-71
2023/08/02 05:57:41;;;;;;;7.47;3.42;;;;;;;15.26;100.00;99430.94;5029328;28;20052;-71
2023/08/02 06:00:08;;;;;;;6.82;3.60;;;;;;;15.27;100.00;99423.66;5029258;28;20033;-71
2023/08/02 06:02:34;;;;;;;8.23;3.55;;;;;;;15.24;100.00;99419.63;5029159;28;20374;-71
2023/08/02 06:04:59;;;;;;;7.82;4.03;;;;;;;15.24;100.00;99411.56;5029104;28;20029;-71
2023/08/02 06:07:25;;;;;;;13.63;4.45;;;;;;;15.20;100.00;99397.06;5029042;28;20057;-71
2023/08/02 06:09:50;;;;;;;8.82;4.15;;;;;;;15.23;100.00;99395.75;5028882;28;20369;-71
2023/08/02 06:12:16;;;;;;;7.40;3.35;;;;;;;15.21;100.00;99374.50;5029395;28;20453;-71
2023/08/02 06:14:41;;;;;;;6.75;3.72;;;;;;;15.22;100.00;99372.63;5033237;28;20036;-71
2023/08/02 06:17:07;;;;;;;11.10;4.13;;;;;;;15.17;100.00;99370.75;5033056;28;20033;-71
2023/08/02 06:19:32;;;;;;;5.68;3.13;;;;;;;15.20;100.00;99358.66;5033104;28;20117;-71
2023/08/02 06:21:57;;;;;;;9.25;4.30;;;;;;;15.20;100.00;99348.72;5033168;28;20029;-76
2023/08/02 06:24:23;;;;;;;8.38;3.17;;;;;;;15.23;100.00;99345.50;5032938;28;20083;-76
2023/08/02 06:26:48;;;;;;;7.55;3.60;;;;;;;15.15;100.00;99332.59;5032939;28;20072;-75
2023/08/02 06:29:13;;;;;;;5.95;3.35;;;;;;;15.23;100.00;99332.06;5032950;28;20033;-76
2023/08/02 06:31:39;;;;;;;6.43;3.53;;;;;;;15.24;100.00;99325.63;5033041;28;20033;-76
2023/08/02 06:34:04;;;;;;;7.20;4.00;;;;;;;15.21;100.00;99312.72;5032785;28;20029;-76
2023/08/02 06:36:30;;;;;;;6.65;3.88;;;;;;;15.25;100.00;99313.81;5032947;28;20063;-76
2023/08/02 06:38:55;;;;;;;7.05;2.75;;;;;;;15.23;100.00;99312.47;5032665;28;20113;-76
2023/08/02 06:41:20;;;;;;;7.55;3.13;;;;;;;15.24;100.00;99303.34;5032525;28;20026;-75
2023/08/02 06:43:46;;;;;;;5.50;2.75;;;;;;;15.23;100.00;99293.66;5032493;28;20063;-76
2023/08/02 06:46:12;;;;;;;5.40;3.22;;;;;;;15.10;100.00;99277.00;5032101;28;20041;-77
2023/08/02 06:48:37;;;;;;;5.10;2.78;;;;;;;15.18;100.00;99280.22;5031643;28;20128;-77
2023/08/02 06:51:02;;;;;;;4.47;2.20;;;;;;;15.17;100.00;99279.44;5031889;28;20064;-76
2023/08/02 06:53:28;;;;;;;4.97;2.47;;;;;;;15.15;100.00;99262.78;5031332;28;20033;-76
2023/08/02 06:55:53;;;;;;;4.68;2.33;;;;;;;15.20;100.00;99253.94;5032110;28;20473;-77
2023/08/02 06:58:19;;;;;;;6.15;2.92;;;;;;;15.21;100.00;99245.59;5032407;28;20029;-77
2023/08/02 07:00:44;;;;;;;7.35;2.95;;;;;;;15.18;100.00;99226.53;5032451;28;20074;-77
2023/08/02 07:03:09;;;;;;;5.65;2.83;;;;;;;15.22;100.00;99225.72;5030966;28;20033;-77
2023/08/02 07:05:35;;;;;;;3.97;2.35;;;;;;;15.22;100.00;99220.34;5032256;28;20032;-75
2023/08/02 07:08:02;;;;;;;5.90;2.58;;;;;;;15.25;100.00;99217.13;5032266;28;20045;-76
2023/08/02 07:10:28;;;;;;;3.90;1.90;;;;;;;15.24;100.00;99202.06;5031949;28;20029;-77
2023/08/02 07:12:55;;;;;;;4.70;2.10;;;;;;;15.26;100.00;99197.25;5032148;28;20064;-72
2023/08/02 07:15:20;;;;;;;4.38;2.17;;;;;;;15.28;100.00;99189.72;5030837;28;20038;-71
2023/08/02 07:17:46;;;;;;;4.60;3.13;;;;;;;15.30;100.00;99190.28;5030193;28;20040;-72
2023/08/02 07:20:12;;;;;;;2.72;2.08;;;;;;;15.32;100.00;99196.16;5031746;28;20037;-72
2023/08/02 07:22:39;;;;;;;4.10;2.17;;;;;;;15.29;100.00;99194.00;5031555;28;20039;-72
2023/08/02 07:25:04;;;;;;;5.80;2.25;;;;;;;15.36;100.00;99185.69;5030717;28;20372;-71
2023/08/02 07:27:30;;;;;;;5.82;2.40;;;;;;;15.35;100.00;99181.38;5031227;28;20045;-70
2023/08/02 07:29:56;;;;;;;4.28;2.50;;;;;;;15.28;100.00;99173.63;5030955;28;20591;-71
2023/08/02 07:32:25;;;;;;;3.92;2.22;;;;;;;15.37;100.00;99181.13;5031379;28;20072;-71
2023/08/02 07:34:51;;;;;;;2.92;1.88;;;;;;;15.35;100.00;99173.34;5030776;28;20103;-71
2023/08/02 07:37:17;;;;;;;4.85;2.75;;;;;;;15.37;100.00;99170.38;5031414;28;20439;-71
2023/08/02 07:39:43;;;;;;;3.88;2.08;;;;;;;15.41;100.00;99176.84;5031491;28;20034;-71
2023/08/02 07:42:08;;;;;;;2.92;2.08;;;;;;;15.41;100.00;99174.16;5031278;28;20033;-71
2023/08/02 07:44:34;;;;;;;3.97;2.10;;;;;;;15.42;100.00;99165.81;5031177;28;20504;-70
2023/08/02 07:46:59;;;;;;;4.20;2.22;;;;;;;15.47;100.00;99156.94;5031311;28;20630;-70
2023/08/02 07:49:24;;;;;;;4.10;2.00;;;;;;;15.52;100.00;99148.88;5031493;28;20069;-71
2023/08/02 07:51:50;;;;;;;4.63;2.42;;;;;;;15.55;100.00;99142.97;5031313;28;20052;-74
2023/08/02 07:54:15;;;;;;;3.75;2.42;;;;;;;15.57;100.00;99128.19;5031666;28;20099;-73
2023/08/02 07:56:40;;;;;;;3.85;2.33;;;;;;;15.62;100.00;99124.69;5031188;28;20025;-74
2023/08/02 07:59:06;;;;;;;2.97;2.20;;;;;;;15.73;100.00;99120.91;5031304;28;20407;-72
2023/08/02 08:01:31;;;;;;;2.83;1.80;;;;;;;15.82;100.00;99123.84;5030994;28;20468;-72
2023/08/02 08:03:57;;;;;;;3.33;1.70;;;;;;;15.84;100.00;99119.00;5029905;28;20026;-72
2023/08/02 08:06:23;;;;;;;4.05;2.10;;;;;;;15.81;100.00;99099.94;5031069;28;20033;-72
2023/08/02 08:08:50;;;;;;;3.55;1.88;;;;;;;15.81;100.00;99102.63;5031224;28;20037;-72
2023/08/02 08:11:16;;;;;;;3.65;2.28;;;;;;;15.85;100.00;99107.19;5031219;28;20021;-72
2023/08/02 08:13:41;;;;;;;3.72;1.65;;;;;;;15.86;100.00;99097.22;5030747;28;20067;-72
2023/08/02 08:16:07;;;;;;;2.83;2.17;;;;;;;15.92;100.00;99093.44;5046210;28;20179;-72
2023/08/02 08:18:33;;;;;;;3.42;2.38;;;;;;;15.96;100.00;99089.13;5029955;28;20041;-72
2023/08/02 08:20:59;;;;;;;4.20;2.60;;;;;;;15.96;100.00;99078.38;5030786;28;20030;-72
2023/08/02 08:23:26;;;;;;;3.25;1.85;;;;;;;15.99;100.00;99088.56;5030816;28;20048;-72
2023/08/02 08:25:51;;;;;;;2.40;1.80;;;;;;;15.99;100.00;99088.56;5030865;28;20033;-72
2023/08/02 08:28:16;;;;;;;4.50;2.38;;;;;;;16.04;100.00;99075.09;5029682;28;20060;-72
2023/08/02 08:30:45;;;;;;;2.83;2.10;;;;;;;16.07;100.00;99076.44;5030751;28;20182;-72
2023/08/02 08:33:10;;;;;;;2.58;2.05;;;;;;;16.10;100.00;99076.69;5030611;28;20397;-72
2023/08/02 08:35:36;;;;;;;2.85;1.95;;;;;;;16.10;100.00;99068.59;5029913;28;20041;-72
2023/08/02 08:38:03;;;;;;;2.25;1.85;;;;;;;16.13;100.00;99076.13;5030178;28;20041;-72
2023/08/02 08:40:29;;;;;;;2.80;2.10;;;;;;;16.11;100.00;99067.53;5030542;28;20032;-72
2023/08/02 08:42:56;;;;;;;3.05;1.95;;;;;;;16.12;100.00;99063.75;5030448;28;20025;-72
2023/08/02 08:45:25;;;;;;;2.17;1.77;;;;;;;16.13;100.00;99069.94;5030057;28;20034;-72
2023/08/02 08:47:52;;;;;;;3.40;2.88;;;;;;;16.20;100.00;99070.44;5030370;28;20492;-72
2023/08/02 08:50:22;;;;;;;3.90;1.90;;;;;;;16.25;100.00;99075.00;5030256;28;20104;-72
2023/08/02 08:52:50;;;;;;;2.85;1.80;;;;;;;16.29;100.00;99062.59;5030083;28;20032;-72
2023/08/02 08:55:17;;;;;;;2.33;1.88;;;;;;;16.35;100.00;99064.19;5030169;28;20037;-72
2023/08/02 08:57:45;;;;;;;7.13;2.67;;;;;;;16.41;100.00;99063.06;5030076;28;20086;-73
2023/08/02 09:00:11;;;;;;;1.85;1.70;;;;;;;16.51;100.00;99054.91;5029762;28;20033;-72
2023/08/02 09:02:41;;;;;;;3.13;1.80;;;;;;;16.58;100.00;99049.22;5029911;28;20041;-71
2023/08/02 09:05:07;;;;;;;2.00;1.30;;;;;;;16.68;100.00;99054.50;5028880;28;20029;-73
2023/08/02 09:07:33;;;;;;;3.08;1.73;;;;;;;16.83;100.00;99051.75;5029969;28;20052;-72
2023/08/02 09:09:58;;;;;;;2.92;1.90;;;;;;;17.04;100.00;99051.56;5029571;28;20025;-73
2023/08/02 09:12:24;;;;;;;2.58;1.98;;;;;;;17.23;100.00;99030.09;5029728;28;20061;-73
2023/08/02 09:15:04;;;;;;;2.40;1.60;;;;;;;17.47;100.00;99038.97;5029763;28;20388;-73
2023/08/02 09:17:47;;;;;;;5.00;1.90;;;;;;;17.62;100.00;99038.00;5029837;28;20754;-73
2023/08/02 09:20:12;;;;;;;4.70;1.70;;;;;;;17.77;100.00;99022.75;5029611;28;20029;-74
2023/08/02 09:22:38;;;;;;;2.65;1.55;;;;;;;17.92;100.00;99027.97;5029656;28;20044;-73
2023/08/02 09:25:07;;;;;;;2.88;1.83;;;;;;;17.99;100.00;99019.53;5045093;28;20112;-73
2023/08/02 09:27:34;;;;;;;2.05;1.58;;;;;;;18.05;100.00;99021.03;5029654;28;20033;-73
2023/08/02 09:29:59;;;;;;;2.47;1.52;;;;;;;18.06;100.00;99009.97;5029848;28;20044;-73
2023/08/02 09:32:25;;;;;;;3.13;1.63;;;;;;;18.13;100.00;99012.28;5029645;28;21058;-74
2023/08/02 09:34:54;;;;;;;3.47;1.80;;;;;;;18.28;100.00;99006.69;5029480;28;20045;-73
2023/08/02 09:37:36;;;;;;;1.70;1.50;;;;;;;18.51;100.00;98996.88;5029478;28;20420;-73
2023/08/02 09:40:09;;;;;;;1.60;1.48;;;;;;;18.82;100.00;99005.31;5029420;28;20412;-74
2023/08/02 09:42:35;;;;;;;2.10;1.73;;;;;;;18.94;100.00;98990.53;5029423;28;20021;-73
2023/08/02 09:45:04;;;;;;;3.08;1.95;;;;;;;18.97;100.00;99003.47;5029423;28;20036;-73
2023/08/02 09:47:30;;;;;;;1.65;1.50;;;;;;;18.90;100.00;98997.63;5029043;28;20380;-73
2023/08/02 09:50:01;;;;;;;3.50;1.98;;;;;;;18.94;100.00;98990.53;5029411;28;20026;-72
2023/08/02 09:52:26;;;;;;;2.15;1.40;;;;;;;18.93;100.00;98988.94;5029245;28;20081;-75
2023/08/02 09:54:53;;;;;;;2.22;1.70;;;;;;;18.93;100.00;98988.94;5028535;28;20068;-70
2023/08/02 09:57:24;;;;;;;4.47;2.13;;;;;;;18.87;100.00;98987.44;5029033;28;20034;-72
2023/08/02 09:59:51;;;;;;;2.22;1.35;;;;;;;18.83;100.00;98988.00;5029239;28;20072;-72
2023/08/02 10:02:19;;;;;;;2.13;1.95;;;;;;;18.80;100.00;98979.69;5028626;28;20037;-72
2023/08/02 10:04:46;;;;;;;2.25;2.05;;;;;;;18.76;100.00;98979.50;5028816;28;20057;-76
2023/08/02 10:07:14;;;;;;;2.42;2.20;;;;;;;18.86;100.00;98970.41;5030187;28;20022;-78
2023/08/02 10:09:41;;;;;;;2.20;2.00;;;;;;;18.98;100.00;98980.72;5029225;28;20070;-78
2023/08/02 10:12:09;;;;;;;2.35;1.90;;;;;;;19.11;100.00;98973.75;5029489;28;20049;-77
2023/08/02 10:14:35;;;;;;;2.58;2.33;;;;;;;19.30;100.00;98976.34;5029297;28;20117;-78
2023/08/02 10:17:01;;;;;;;5.32;2.35;;;;;;;19.36;100.00;98986.78;5029506;28;20488;-78
2023/08/02 10:19:30;;;;;;;1.92;1.80;;;;;;;19.36;100.00;98978.66;5030017;28;20060;-78
2023/08/02 10:22:00;;;;;;;2.83;1.77;;;;;;;19.42;100.00;98976.66;5029784;28;20427;-78
2023/08/02 10:24:26;;;;;;;2.50;1.60;;;;;;;19.46;100.00;98967.63;5044191;28;20038;-78
2023/08/02 10:26:57;;;;;;;4.20;2.00;;;;;;;19.48;100.00;98941.09;5029740;28;20112;-78
2023/08/02 10:29:27;;;;;;;2.35;1.95;;;;;;;19.72;100.00;98942.78;5028069;28;20029;-78
2023/08/02 10:31:52;;;;;;;3.30;2.28;;;;;;;19.94;100.00;98928.50;5029751;28;20110;-78
2023/08/02 10:34:36;;;;;;;3.75;2.47;;;;;;;20.14;100.00;98917.19;5029683;28;20485;-78
2023/08/02 10:37:03;;;;;;;3.20;1.90;;;;;;;20.30;100.00;98914.09;5029484;28;20091;-78
2023/08/02 10:39:52;;;;;;;3.67;2.42;;;;;;;20.61;100.00;98907.94;5029720;28;20018;-78
2023/08/02 10:42:26;;;;;;;2.60;2.20;;;;;;;20.76;100.00;98902.94;5026661;28;20041;-77
2023/08/02 10:44:54;;;;;;;3.25;1.98;;;;;;;20.84;100.00;98923.03;5029223;28;20020;-77
2023/08/02 10:47:28;;;;;;;2.20;2.08;;;;;;;20.75;100.00;98917.59;5029354;28;20124;-71
2023/08/02 10:49:55;;;;;;;2.75;2.25;;;;;;;20.55;100.00;98905.38;5028568;28;20554;-72
2023/08/02 10:52:24;;;;;;;2.40;2.15;;;;;;;20.39;100.00;98900.63;5028387;28;20045;-72
2023/08/02 10:55:12;;;;;;;2.45;1.90;;;;;;;20.26;100.00;98896.91;5028055;28;20033;-72
2023/08/02 10:57:40;;;;;;;1.63;1.52;;;;;;;20.07;100.00;98899.78;5028590;28;20381;-73
2023/08/02 11:00:18;;;;;;;2.10;1.92;;;;;;;19.98;100.00;98909.75;5029993;28;20575;-72
2023/08/02 11:02:46;;;;;;;2.28;1.90;;;;;;;19.86;100.00;98905.69;5031679;28;20452;-72
2023/08/02 11:05:13;;;;;;;2.15;1.95;;;;;;;19.80;100.00;98900.69;5031757;28;20025;-72
2023/08/02 11:07:38;;;;;;;2.15;1.95;;;;;;;19.72;100.00;98880.56;5031666;28;20140;-72
2023/08/02 11:10:07;;;;;;;2.00;1.90;;;;;;;19.73;100.00;98867.84;5031956;28;20128;-72
2023/08/02 11:12:33;;;;;;;4.35;2.20;;;;;;;19.70;100.00;98864.66;5031749;28;20562;-72
2023/08/02 11:14:59;;;;;;;2.50;1.80;;;;;;;19.72;100.00;98864.34;5031552;28;20048;-72
2023/08/02 11:17:25;;;;;;;2.17;1.83;;;;;;;19.72;100.00;98864.34;5031801;28;20392;-72
2023/08/02 11:19:52;;;;;;;4.38;2.08;;;;;;;19.75;100.00;98862.91;5046435;28;20029;-72
2023/08/02 11:22:18;;;;;;;2.33;2.13;;;;;;;19.69;100.00;98881.19;5030932;28;20029;-72